sensor_id;sensor_type;location;lat;lon;timestamp;pressure;altitude;pressure_sealevel;temperature
17716;BMP280;50159;49.426;11.182;2023-02-28T00:01:31;98489.25;;;-1.81
17716;BMP280;50159;49.426;11.182;2023-02-28T00:03:58;98484.16;;;-1.83
17716;BMP280;50159;49.426;11.182;2023-02-28T00:06:25;98490.13;;;-1.84
17716;BMP280;50159;49.426;11.182;2023-02-28T00:08:52;98487.59;;;-1.84
17716;BMP280;50159;49.426;11.182;2023-02-28T00:11:19;98482.53;;;-1.85
17716;BMP280;50159;49.426;11.182;2023-02-28T00:13:47;98492.75;;;-1.87
17716;BMP280;50159;49.426;11.182;2023-02-28T00:16:21;98485.97;;;-1.88
17716;BMP280;50159;49.426;11.182;2023-02-28T00:18:49;98484.25;;;-1.89
17716;BMP280;50159;49.426;11.182;2023-02-28T00:21:17;98486.84;;;-1.90
17716;BMP280;50159;49.426;11.182;2023-02-28T00:23:45;98486.84;;;-1.90
17716;BMP280;50159;49.426;11.182;2023-02-28T00:26:11;98484.31;;;-1.92
17716;BMP280;50159;49.426;11.182;2023-02-28T00:28:38;98480.94;;;-1.92
17716;BMP280;50159;49.426;11.182;2023-02-28T00:31:05;98471.59;;;-1.93
17716;BMP280;50159;49.426;11.182;2023-02-28T00:33:32;98485.19;;;-1.93
17716;BMP280;50159;49.426;11.182;2023-02-28T00:36:08;98487.75;;;-1.93
17716;BMP280;50159;49.426;11.182;2023-02-28T00:38:38;98484.38;;;-1.95
17716;BMP280;50159;49.426;11.182;2023-02-28T00:41:05;98484.34;;;-1.93
17716;BMP280;50159;49.426;11.182;2023-02-28T00:43:33;98485.19;;;-1.93
17716;BMP280;50159;49.426;11.182;2023-02-28T00:46:02;98478.38;;;-1.92
17716;BMP280;50159;49.426;11.182;2023-02-28T00:48:29;98483.47;;;-1.92
17716;BMP280;50159;49.426;11.182;2023-02-28T00:50:56;98482.66;;;-1.93
17716;BMP280;50159;49.426;11.182;2023-02-28T00:53:23;98478.38;;;-1.92
17716;BMP280;50159;49.426;11.182;2023-02-28T00:55:50;98480.94;;;-1.92
17716;BMP280;50159;49.426;11.182;2023-02-28T00:58:17;98479.25;;;-1.93
17716;BMP280;50159;49.426;11.182;2023-02-28T01:00:45;98480.09;;;-1.93
17716;BMP280;50159;49.426;11.182;2023-02-28T01:03:17;98477.53;;;-1.93
17716;BMP280;50159;49.426;11.182;2023-02-28T01:05:45;98480.06;;;-1.91
17716;BMP280;50159;49.426;11.182;2023-02-28T01:08:14;98477.53;;;-1.93
17716;BMP280;50159;49.426;11.182;2023-02-28T01:10:42;98472.41;;;-1.91
17716;BMP280;50159;49.426;11.182;2023-02-28T01:13:09;98473.25;;;-1.91
17716;BMP280;50159;49.426;11.182;2023-02-28T01:15:36;98474.09;;;-1.90
17716;BMP280;50159;49.426;11.182;2023-02-28T01:18:03;98472.44;;;-1.93
17716;BMP280;50159;49.426;11.182;2023-02-28T01:20:29;98463.09;;;-1.92
17716;BMP280;50159;49.426;11.182;2023-02-28T01:22:57;98462.25;;;-1.93
17716;BMP280;50159;49.426;11.182;2023-02-28T01:25:24;98473.31;;;-1.94
17716;BMP280;50159;49.426;11.182;2023-02-28T01:27:51;98473.34;;;-1.95
17716;BMP280;50159;49.426;11.182;2023-02-28T01:30:18;98471.56;;;-1.92
17716;BMP280;50159;49.426;11.182;2023-02-28T01:32:45;98461.41;;;-1.93
17716;BMP280;50159;49.426;11.182;2023-02-28T01:35:12;98455.47;;;-1.94
17716;BMP280;50159;49.426;11.182;2023-02-28T01:37:39;98454.63;;;-1.94
17716;BMP280;50159;49.426;11.182;2023-02-28T01:40:06;98452.13;;;-1.96
17716;BMP280;50159;49.426;11.182;2023-02-28T01:42:33;98461.47;;;-1.96
17716;BMP280;50159;49.426;11.182;2023-02-28T01:45:31;98457.28;;;-1.99
17716;BMP280;50159;49.426;11.182;2023-02-28T01:48:07;98457.28;;;-1.99
17716;BMP280;50159;49.426;11.182;2023-02-28T01:50:41;98465.78;;;-2.00
17716;BMP280;50159;49.426;11.182;2023-02-28T01:53:16;98465.78;;;-2.00
17716;BMP280;50159;49.426;11.182;2023-02-28T01:55:48;98464.94;;;-2.02
17716;BMP280;50159;49.426;11.182;2023-02-28T01:58:17;98458.97;;;-2.01
17716;BMP280;50159;49.426;11.182;2023-02-28T02:00:44;98460.72;;;-2.02
17716;BMP280;50159;49.426;11.182;2023-02-28T02:03:16;98462.44;;;-2.03
17716;BMP280;50159;49.426;11.182;2023-02-28T02:05:45;98456.47;;;-2.02
17716;BMP280;50159;49.426;11.182;2023-02-28T02:08:21;98465.78;;;-2.01
17716;BMP280;50159;49.426;11.182;2023-02-28T02:10:58;98447.13;;;-2.02
17716;BMP280;50159;49.426;11.182;2023-02-28T02:16:33;98444.56;;;-2.02
17716;BMP280;50159;49.426;11.182;2023-02-28T02:19:59;98441.22;;;-2.03
17716;BMP280;50159;49.426;11.182;2023-02-28T02:23:40;98438.66;;;-2.03
17716;BMP280;50159;49.426;11.182;2023-02-28T02:26:27;98438.66;;;-2.03
17716;BMP280;50159;49.426;11.182;2023-02-28T02:32:45;98437.03;;;-2.07
17716;BMP280;50159;49.426;11.182;2023-02-28T02:41:09;98425.19;;;-2.10
17716;BMP280;50159;49.426;11.182;2023-02-28T02:44:31;98433.69;;;-2.09
17716;BMP280;50159;49.426;11.182;2023-02-28T02:47:10;98425.19;;;-2.10
17716;BMP280;50159;49.426;11.182;2023-02-28T02:49:45;98438.00;;;-2.13
17716;BMP280;50159;49.426;11.182;2023-02-28T02:52:18;98437.13;;;-2.13
17716;BMP280;50159;49.426;11.182;2023-02-28T02:54:50;98425.25;;;-2.14
17716;BMP280;50159;49.426;11.182;2023-02-28T02:57:33;98434.63;;;-2.15
17716;BMP280;50159;49.426;11.182;2023-02-28T03:00:05;98442.31;;;-2.18
17716;BMP280;50159;49.426;11.182;2023-02-28T03:02:37;98445.69;;;-2.16
17716;BMP280;50159;49.426;11.182;2023-02-28T03:05:15;98442.28;;;-2.16
17716;BMP280;50159;49.426;11.182;2023-02-28T03:07:44;98437.22;;;-2.18
17716;BMP280;50159;49.426;11.182;2023-02-28T03:22:38;98445.81;;;-2.23
17716;BMP280;50159;49.426;11.182;2023-02-28T03:30:51;98450.94;;;-2.26
17716;BMP280;50159;49.426;11.182;2023-02-28T03:33:27;98438.22;;;-2.26
17716;BMP280;50159;49.426;11.182;2023-02-28T03:36:16;98443.34;;;-2.27
17716;BMP280;50159;49.426;11.182;2023-02-28T03:38:53;98447.59;;;-2.28
17716;BMP280;50159;49.426;11.182;2023-02-28T03:41:52;98446.78;;;-2.30
17716;BMP280;50159;49.426;11.182;2023-02-28T03:44:32;98443.38;;;-2.30
17716;BMP280;50159;49.426;11.182;2023-02-28T03:47:20;98441.69;;;-2.30
17716;BMP280;50159;49.426;11.182;2023-02-28T03:50:15;98441.72;;;-2.31
17716;BMP280;50159;49.426;11.182;2023-02-28T03:52:50;98449.31;;;-2.30
17716;BMP280;50159;49.426;11.182;2023-02-28T03:55:19;98450.19;;;-2.31
17716;BMP280;50159;49.426;11.182;2023-02-28T03:58:27;98449.31;;;-2.30
17716;BMP280;50159;49.426;11.182;2023-02-28T04:01:09;98451.00;;;-2.29
17716;BMP280;50159;49.426;11.182;2023-02-28T04:03:39;98446.78;;;-2.30
17716;BMP280;50159;49.426;11.182;2023-02-28T04:06:08;98451.88;;;-2.30
17716;BMP280;50159;49.426;11.182;2023-02-28T04:08:40;98451.91;;;-2.31
17716;BMP280;50159;49.426;11.182;2023-02-28T04:11:36;98451.06;;;-2.32
17716;BMP280;50159;49.426;11.182;2023-02-28T04:14:05;98455.31;;;-2.32
17716;BMP280;50159;49.426;11.182;2023-02-28T04:16:34;98455.31;;;-2.32
17716;BMP280;50159;49.426;11.182;2023-02-28T04:19:06;98451.03;;;-2.30
17716;BMP280;50159;49.426;11.182;2023-02-28T04:21:40;98457.84;;;-2.31
17716;BMP280;50159;49.426;11.182;2023-02-28T04:24:11;98465.44;;;-2.29
17716;BMP280;50159;49.426;11.182;2023-02-28T04:26:44;98446.78;;;-2.30
17716;BMP280;50159;49.426;11.182;2023-02-28T04:29:14;98453.56;;;-2.30
17716;BMP280;50159;49.426;11.182;2023-02-28T04:31:41;98450.16;;;-2.29
17716;BMP280;50159;49.426;11.182;2023-02-28T04:34:07;98456.09;;;-2.29
17716;BMP280;50159;49.426;11.182;2023-02-28T04:36:34;98449.31;;;-2.30
17716;BMP280;50159;49.426;11.182;2023-02-28T04:39:01;98451.00;;;-2.29
17716;BMP280;50159;49.426;11.182;2023-02-28T04:41:28;98442.50;;;-2.28
17716;BMP280;50159;49.426;11.182;2023-02-28T04:43:58;98450.09;;;-2.26
17716;BMP280;50159;49.426;11.182;2023-02-28T04:46:25;98450.94;;;-2.26
17716;BMP280;50159;49.426;11.182;2023-02-28T04:48:52;98450.94;;;-2.26
17716;BMP280;50159;49.426;11.182;2023-02-28T04:51:20;98451.78;;;-2.24
17716;BMP280;50159;49.426;11.182;2023-02-28T04:53:48;98450.09;;;-2.26
17716;BMP280;50159;49.426;11.182;2023-02-28T04:56:17;98444.19;;;-2.27
17716;BMP280;50159;49.426;11.182;2023-02-28T04:58:44;98451.00;;;-2.29
17716;BMP280;50159;49.426;11.182;2023-02-28T05:01:33;98445.91;;;-2.29
17716;BMP280;50159;49.426;11.182;2023-02-28T05:04:02;98452.72;;;-2.29
17716;BMP280;50159;49.426;11.182;2023-02-28T05:06:32;98457.78;;;-2.28
17716;BMP280;50159;49.426;11.182;2023-02-28T05:09:00;98451.00;;;-2.29
17716;BMP280;50159;49.426;11.182;2023-02-28T05:11:33;98460.28;;;-2.26
17716;BMP280;50159;49.426;11.182;2023-02-28T05:14:09;98462.88;;;-2.28
17716;BMP280;50159;49.426;11.182;2023-02-28T05:16:36;98458.63;;;-2.27
17716;BMP280;50159;49.426;11.182;2023-02-28T05:19:03;98447.66;;;-2.31
17716;BMP280;50159;49.426;11.182;2023-02-28T05:21:35;98457.84;;;-2.31
17716;BMP280;50159;49.426;11.182;2023-02-28T05:24:07;98456.13;;;-2.30
17716;BMP280;50159;49.426;11.182;2023-02-28T05:26:38;98461.22;;;-2.30
17716;BMP280;50159;49.426;11.182;2023-02-28T05:29:05;98466.34;;;-2.32
17716;BMP280;50159;49.426;11.182;2023-02-28T05:31:33;98468.09;;;-2.34
17716;BMP280;50159;49.426;11.182;2023-02-28T05:34:00;98466.41;;;-2.35
17716;BMP280;50159;49.426;11.182;2023-02-28T05:36:27;98472.38;;;-2.36
17716;BMP280;50159;49.426;11.182;2023-02-28T05:38:54;98460.50;;;-2.37
17716;BMP280;50159;49.426;11.182;2023-02-28T05:41:21;98463.03;;;-2.37
17716;BMP280;50159;49.426;11.182;2023-02-28T05:43:48;98469.00;;;-2.38
17716;BMP280;50159;49.426;11.182;2023-02-28T05:46:16;98470.72;;;-2.40
17716;BMP280;50159;49.426;11.182;2023-02-28T05:48:47;98470.75;;;-2.41
17716;BMP280;50159;49.426;11.182;2023-02-28T05:51:15;98475.00;;;-2.42
17716;BMP280;50159;49.426;11.182;2023-02-28T05:53:41;98473.31;;;-2.43
17716;BMP280;50159;49.426;11.182;2023-02-28T05:56:08;98474.19;;;-2.44
17716;BMP280;50159;49.426;11.182;2023-02-28T05:58:35;98475.94;;;-2.47
17716;BMP280;50159;49.426;11.182;2023-02-28T06:03:58;98482.72;;;-2.46
17716;BMP280;50159;49.426;11.182;2023-02-28T06:06:25;98475.94;;;-2.47
17716;BMP280;50159;49.426;11.182;2023-02-28T06:08:52;98487.78;;;-2.45
17716;BMP280;50159;49.426;11.182;2023-02-28T06:11:19;98492.00;;;-2.44
17716;BMP280;50159;49.426;11.182;2023-02-28T06:13:47;98484.34;;;-2.42
17716;BMP280;50159;49.426;11.182;2023-02-28T06:16:14;98482.59;;;-2.40
17716;BMP280;50159;49.426;11.182;2023-02-28T06:18:40;98492.78;;;-2.37
17716;BMP280;50159;49.426;11.182;2023-02-28T06:21:07;98487.66;;;-2.36
17716;BMP280;50159;49.426;11.182;2023-02-28T06:23:35;98491.81;;;-2.32
17716;BMP280;50159;49.426;11.182;2023-02-28T06:26:02;98483.25;;;-2.28
17716;BMP280;50159;49.426;11.182;2023-02-28T06:28:29;98487.38;;;-2.20
17716;BMP280;50159;49.426;11.182;2023-02-28T06:30:55;98487.25;;;-2.14
17716;BMP280;50159;49.426;11.182;2023-02-28T06:33:22;98485.47;;;-2.07
17716;BMP280;50159;49.426;11.182;2023-02-28T06:35:52;98490.44;;;-2.00
17716;BMP280;50159;49.426;11.182;2023-02-28T06:38:19;98493.75;;;-1.95
17716;BMP280;50159;49.426;11.182;2023-02-28T06:40:54;98500.44;;;-1.90
17716;BMP280;50159;49.426;11.182;2023-02-28T06:43:23;98496.94;;;-1.84
17716;BMP280;50159;49.426;11.182;2023-02-28T06:45:53;98513.78;;;-1.76
17716;BMP280;50159;49.426;11.182;2023-02-28T06:48:20;98497.50;;;-1.69
17716;BMP280;50159;49.426;11.182;2023-02-28T06:50:47;98502.47;;;-1.60
17716;BMP280;50159;49.426;11.182;2023-02-28T06:53:14;98498.84;;;-1.51
17716;BMP280;50159;49.426;11.182;2023-02-28T06:55:41;98498.59;;;-1.39
17716;BMP280;50159;49.426;11.182;2023-02-28T06:58:09;98509.44;;;-1.28
17716;BMP280;50159;49.426;11.182;2023-02-28T07:00:42;98499.81;;;-1.14
17716;BMP280;50159;49.426;11.182;2023-02-28T07:03:10;98495.25;;;-1.01
17716;BMP280;50159;49.426;11.182;2023-02-28T07:05:38;98504.34;;;-0.88
17716;BMP280;50159;49.426;11.182;2023-02-28T07:08:06;98510.84;;;-0.72
17716;BMP280;50159;49.426;11.182;2023-02-28T07:10:33;98505.50;;;-0.64
17716;BMP280;50159;49.426;11.182;2023-02-28T07:13:00;98507.75;;;-0.50
17716;BMP280;50159;49.426;11.182;2023-02-28T07:15:27;98513.44;;;-0.38
17716;BMP280;50159;49.426;11.182;2023-02-28T07:17:54;98517.34;;;-0.22
17716;BMP280;50159;49.426;11.182;2023-02-28T07:20:21;98515.38;;;-0.12
17716;BMP280;50159;49.426;11.182;2023-02-28T07:22:47;98518.41;;;0.03
17716;BMP280;50159;49.426;11.182;2023-02-28T07:25:27;98523.97;;;0.19
17716;BMP280;50159;49.426;11.182;2023-02-28T07:27:56;98532.09;;;0.34
17716;BMP280;50159;49.426;11.182;2023-02-28T07:30:22;98519.00;;;0.45
17716;BMP280;50159;49.426;11.182;2023-02-28T07:32:49;98521.19;;;0.59
17716;BMP280;50159;49.426;11.182;2023-02-28T07:35:16;98517.50;;;0.68
17716;BMP280;50159;49.426;11.182;2023-02-28T07:37:43;98524.03;;;0.80
17716;BMP280;50159;49.426;11.182;2023-02-28T07:40:11;98515.91;;;0.94
17716;BMP280;50159;49.426;11.182;2023-02-28T07:42:40;98521.53;;;1.07
17716;BMP280;50159;49.426;11.182;2023-02-28T07:45:09;98512.97;;;1.08
17716;BMP280;50159;49.426;11.182;2023-02-28T07:47:38;98520.78;;;1.03
17716;BMP280;50159;49.426;11.182;2023-02-28T07:50:08;98525.97;;;1.02
17716;BMP280;50159;49.426;11.182;2023-02-28T07:52:37;98530.00;;;1.09
17716;BMP280;50159;49.426;11.182;2023-02-28T07:55:06;98529.66;;;1.20
17716;BMP280;50159;49.426;11.182;2023-02-28T07:57:34;98523.25;;;1.34
17716;BMP280;50159;49.426;11.182;2023-02-28T08:00:02;98527.66;;;1.58
17716;BMP280;50159;49.426;11.182;2023-02-28T08:02:29;98526.88;;;1.83
17716;BMP280;50159;49.426;11.182;2023-02-28T08:04:56;98528.50;;;2.11
17716;BMP280;50159;49.426;11.182;2023-02-28T08:07:23;98526.16;;;2.30
17716;BMP280;50159;49.426;11.182;2023-02-28T08:09:50;98530.44;;;2.55
17716;BMP280;50159;49.426;11.182;2023-02-28T08:12:17;98521.53;;;2.65
17716;BMP280;50159;49.426;11.182;2023-02-28T08:14:43;98521.19;;;2.74
17716;BMP280;50159;49.426;11.182;2023-02-28T08:17:11;98519.22;;;2.82
17716;BMP280;50159;49.426;11.182;2023-02-28T08:19:38;98521.41;;;2.68
17716;BMP280;50159;49.426;11.182;2023-02-28T08:22:05;98527.63;;;2.61
17716;BMP280;50159;49.426;11.182;2023-02-28T08:24:31;98531.69;;;2.68
17716;BMP280;50159;49.426;11.182;2023-02-28T08:26:59;98528.53;;;2.60
17716;BMP280;50159;49.426;11.182;2023-02-28T08:29:26;98525.91;;;2.62
17716;BMP280;50159;49.426;11.182;2023-02-28T08:31:53;98523.69;;;2.77
17716;BMP280;50159;49.426;11.182;2023-02-28T08:34:20;98522.00;;;2.98
17716;BMP280;50159;49.426;11.182;2023-02-28T08:36:47;98522.22;;;3.16
17716;BMP280;50159;49.426;11.182;2023-02-28T08:39:14;98524.94;;;3.34
17716;BMP280;50159;49.426;11.182;2023-02-28T08:41:42;98526.53;;;3.38
17716;BMP280;50159;49.426;11.182;2023-02-28T08:44:10;98516.44;;;3.55
17716;BMP280;50159;49.426;11.182;2023-02-28T08:46:38;98524.66;;;3.64
17716;BMP280;50159;49.426;11.182;2023-02-28T08:49:04;98526.25;;;3.67
17716;BMP280;50159;49.426;11.182;2023-02-28T08:51:31;98531.41;;;3.67
17716;BMP280;50159;49.426;11.182;2023-02-28T08:54:00;98528.16;;;3.62
17716;BMP280;50159;49.426;11.182;2023-02-28T08:56:28;98524.09;;;3.57
17716;BMP280;50159;49.426;11.182;2023-02-28T08:58:56;98536.75;;;3.61
17716;BMP280;50159;49.426;11.182;2023-02-28T09:01:28;98531.88;;;3.55
17716;BMP280;50159;49.426;11.182;2023-02-28T09:03:58;98535.09;;;3.60
17716;BMP280;50159;49.426;11.182;2023-02-28T09:06:26;98537.31;;;3.69
17716;BMP280;50159;49.426;11.182;2023-02-28T09:08:57;98525.25;;;3.92
17716;BMP280;50159;49.426;11.182;2023-02-28T09:11:25;98527.34;;;4.03
17716;BMP280;50159;49.426;11.182;2023-02-28T09:13:52;98524.31;;;4.35
17716;BMP280;50159;49.426;11.182;2023-02-28T09:16:19;98507.88;;;4.78
17716;BMP280;50159;49.426;11.182;2023-02-28T09:18:46;98506.84;;;5.00
17716;BMP280;50159;49.426;11.182;2023-02-28T09:21:16;98512.00;;;5.19
17716;BMP280;50159;49.426;11.182;2023-02-28T09:23:45;98517.69;;;5.26
17716;BMP280;50159;49.426;11.182;2023-02-28T09:26:25;98505.97;;;5.38
17716;BMP280;50159;49.426;11.182;2023-02-28T09:29:04;98499.06;;;5.39
17716;BMP280;50159;49.426;11.182;2023-02-28T09:31:31;98519.13;;;5.51
17716;BMP280;50159;49.426;11.182;2023-02-28T09:33:58;98506.78;;;5.57
17716;BMP280;50159;49.426;11.182;2023-02-28T09:36:27;98504.00;;;5.61
17716;BMP280;50159;49.426;11.182;2023-02-28T09:39:10;98510.75;;;5.46
17716;BMP280;50159;49.426;11.182;2023-02-28T09:41:41;98508.59;;;5.37
17716;BMP280;50159;49.426;11.182;2023-02-28T09:44:38;98513.78;;;5.55
17716;BMP280;50159;49.426;11.182;2023-02-28T09:47:34;98511.72;;;5.61
17716;BMP280;50159;49.426;11.182;2023-02-28T09:53:06;98520.63;;;5.74
17716;BMP280;50159;49.426;11.182;2023-02-28T09:55:47;98521.72;;;5.87
17716;BMP280;50159;49.426;11.182;2023-02-28T10:01:05;98519.47;;;5.98
17716;BMP280;50159;49.426;11.182;2023-02-28T10:03:47;98512.06;;;6.08
17716;BMP280;50159;49.426;11.182;2023-02-28T10:06:23;98517.53;;;6.03
17716;BMP280;50159;49.426;11.182;2023-02-28T10:09:30;98515.72;;;6.04
17716;BMP280;50159;49.426;11.182;2023-02-28T10:12:05;98514.03;;;6.03
17716;BMP280;50159;49.426;11.182;2023-02-28T10:14:34;98505.97;;;6.27
17716;BMP280;50159;49.426;11.182;2023-02-28T10:17:21;98511.28;;;6.41
17716;BMP280;50159;49.426;11.182;2023-02-28T10:20:02;98516.59;;;6.38
17716;BMP280;50159;49.426;11.182;2023-02-28T10:23:38;98522.13;;;6.14
17716;BMP280;50159;49.426;11.182;2023-02-28T10:26:03;98517.13;;;5.75
17716;BMP280;50159;49.426;11.182;2023-02-28T10:28:32;98522.09;;;5.80
17716;BMP280;50159;49.426;11.182;2023-02-28T10:30:59;98505.19;;;6.25
17716;BMP280;50159;49.426;11.182;2023-02-28T10:33:35;98505.75;;;6.65
17716;BMP280;50159;49.426;11.182;2023-02-28T10:36:03;98506.34;;;7.03
17716;BMP280;50159;49.426;11.182;2023-02-28T10:38:38;98501.44;;;7.14
17716;BMP280;50159;49.426;11.182;2023-02-28T10:41:14;98504.34;;;7.55
17716;BMP280;50159;49.426;11.182;2023-02-28T10:43:44;98502.03;;;7.81
17716;BMP280;50159;49.426;11.182;2023-02-28T10:46:18;98504.53;;;7.67
17716;BMP280;50159;49.426;11.182;2023-02-28T10:49:13;98513.13;;;7.68
17716;BMP280;50159;49.426;11.182;2023-02-28T10:51:41;98501.84;;;7.69
17716;BMP280;50159;49.426;11.182;2023-02-28T10:54:34;98494.19;;;7.82
17716;BMP280;50159;49.426;11.182;2023-02-28T10:57:18;98493.94;;;8.17
17716;BMP280;50159;49.426;11.182;2023-02-28T10:59:50;98489.47;;;8.34
17716;BMP280;50159;49.426;11.182;2023-02-28T11:02:36;98490.09;;;8.53
17716;BMP280;50159;49.426;11.182;2023-02-28T11:05:35;98498.06;;;8.79
17716;BMP280;50159;49.426;11.182;2023-02-28T11:08:14;98505.13;;;8.62
17716;BMP280;50159;49.426;11.182;2023-02-28T11:10:54;98486.41;;;8.57
17716;BMP280;50159;49.426;11.182;2023-02-28T11:13:29;98495.63;;;8.47
17716;BMP280;50159;49.426;11.182;2023-02-28T11:16:02;98494.66;;;8.63
17716;BMP280;50159;49.426;11.182;2023-02-28T11:18:49;98495.56;;;8.62
17716;BMP280;50159;49.426;11.182;2023-02-28T11:21:27;98491.22;;;8.63
17716;BMP280;50159;49.426;11.182;2023-02-28T11:24:04;98483.19;;;8.67
17716;BMP280;50159;49.426;11.182;2023-02-28T11:26:46;98495.75;;;8.59
17716;BMP280;50159;49.426;11.182;2023-02-28T11:29:28;98486.00;;;8.49
17716;BMP280;50159;49.426;11.182;2023-02-28T11:32:16;98494.00;;;8.31
17716;BMP280;50159;49.426;11.182;2023-02-28T11:34:46;98490.84;;;8.11
17716;BMP280;50159;49.426;11.182;2023-02-28T11:37:18;98497.88;;;8.09
17716;BMP280;50159;49.426;11.182;2023-02-28T11:39:46;98493.34;;;8.12
17716;BMP280;50159;49.426;11.182;2023-02-28T11:47:56;98489.28;;;8.37
17716;BMP280;50159;49.426;11.182;2023-02-28T11:54:21;98474.22;;;8.86
17716;BMP280;50159;49.426;11.182;2023-02-28T11:57:00;98465.47;;;9.02
17716;BMP280;50159;49.426;11.182;2023-02-28T12:11:26;98494.84;;;9.71
17716;BMP280;50159;49.426;11.182;2023-02-28T12:17:06;98480.84;;;9.46
17716;BMP280;50159;49.426;11.182;2023-02-28T12:28:02;98465.88;;;9.63
17716;BMP280;50159;49.426;11.182;2023-02-28T12:30:41;98455.88;;;9.71
17716;BMP280;50159;49.426;11.182;2023-02-28T12:33:17;98455.88;;;9.71
17716;BMP280;50159;49.426;11.182;2023-02-28T12:35:55;98450.94;;;9.94
17716;BMP280;50159;49.426;11.182;2023-02-28T12:38:29;98441.31;;;10.08
17716;BMP280;50159;49.426;11.182;2023-02-28T12:41:10;98452.75;;;10.32
17716;BMP280;50159;49.426;11.182;2023-02-28T12:44:05;98435.19;;;10.48
17716;BMP280;50159;49.426;11.182;2023-02-28T12:46:42;98437.59;;;10.51
17716;BMP280;50159;49.426;11.182;2023-02-28T12:49:25;98448.59;;;10.92
17716;BMP280;50159;49.426;11.182;2023-02-28T12:51:53;98425.78;;;10.83
17716;BMP280;50159;49.426;11.182;2023-02-28T12:54:38;98431.13;;;10.44
17716;BMP280;50159;49.426;11.182;2023-02-28T13:00:14;98440.78;;;10.04
17716;BMP280;50159;49.426;11.182;2023-02-28T13:09:18;98439.69;;;10.20
17716;BMP280;50159;49.426;11.182;2023-02-28T13:11:53;98434.81;;;10.15
17716;BMP280;50159;49.426;11.182;2023-02-28T13:14:37;98438.81;;;10.33
17716;BMP280;50159;49.426;11.182;2023-02-28T13:19:46;98434.59;;;10.18
17716;BMP280;50159;49.426;11.182;2023-02-28T13:24:56;98439.03;;;10.04
17716;BMP280;50159;49.426;11.182;2023-02-28T13:29:52;98442.50;;;10.55
17716;BMP280;50159;49.426;11.182;2023-02-28T13:32:32;98444.19;;;10.68
17716;BMP280;50159;49.426;11.182;2023-02-28T13:39:59;98444.22;;;11.17
17716;BMP280;50159;49.426;11.182;2023-02-28T13:42:47;98444.34;;;11.03
17716;BMP280;50159;49.426;11.182;2023-02-28T13:45:23;98429.00;;;10.74
17716;BMP280;50159;49.426;11.182;2023-02-28T13:48:02;98439.22;;;10.77
17716;BMP280;50159;49.426;11.182;2023-02-28T13:50:37;98436.78;;;10.74
17716;BMP280;50159;49.426;11.182;2023-02-28T14:02:43;98436.19;;;11.32
17716;BMP280;50159;49.426;11.182;2023-02-28T14:05:20;98432.63;;;11.33
17716;BMP280;50159;49.426;11.182;2023-02-28T14:08:05;98431.72;;;11.82
17716;BMP280;50159;49.426;11.182;2023-02-28T14:10:45;98425.66;;;12.73
17716;BMP280;50159;49.426;11.182;2023-02-28T14:15:48;98413.84;;;16.64
17716;BMP280;50159;49.426;11.182;2023-02-28T14:18:20;98401.94;;;18.48
17716;BMP280;50159;49.426;11.182;2023-02-28T14:24:32;98416.25;;;21.55
17716;BMP280;50159;49.426;11.182;2023-02-28T14:39:00;98403.78;;;23.34
17716;BMP280;50159;49.426;11.182;2023-02-28T14:41:36;98405.56;;;23.41
17716;BMP280;50159;49.426;11.182;2023-02-28T14:44:20;98411.97;;;23.11
17716;BMP280;50159;49.426;11.182;2023-02-28T14:46:55;98410.81;;;23.63
17716;BMP280;50159;49.426;11.182;2023-02-28T14:49:28;98398.44;;;23.99
17716;BMP280;50159;49.426;11.182;2023-02-28T14:52:14;98405.44;;;23.35
17716;BMP280;50159;49.426;11.182;2023-02-28T14:54:42;98400.34;;;23.12
17716;BMP280;50159;49.426;11.182;2023-02-28T14:57:30;98401.31;;;23.69
17716;BMP280;50159;49.426;11.182;2023-02-28T15:02:54;98390.31;;;23.21
17716;BMP280;50159;49.426;11.182;2023-02-28T15:05:32;98384.72;;;22.21
17716;BMP280;50159;49.426;11.182;2023-02-28T15:08:17;98380.75;;;20.87
17716;BMP280;50159;49.426;11.182;2023-02-28T15:11:01;98389.00;;;20.44
17716;BMP280;50159;49.426;11.182;2023-02-28T15:13:49;98381.66;;;20.39
17716;BMP280;50159;49.426;11.182;2023-02-28T15:16:29;98383.59;;;20.05
17716;BMP280;50159;49.426;11.182;2023-02-28T15:19:02;98387.78;;;18.83
17716;BMP280;50159;49.426;11.182;2023-02-28T15:21:35;98384.13;;;17.89
17716;BMP280;50159;49.426;11.182;2023-02-28T15:27:04;98389.09;;;14.33
17716;BMP280;50159;49.426;11.182;2023-02-28T15:30:05;98389.09;;;14.33
17716;BMP280;50159;49.426;11.182;2023-02-28T15:32:38;98394.22;;;10.75
17716;BMP280;50159;49.426;11.182;2023-02-28T15:40:54;98384.78;;;8.37
17716;BMP280;50159;49.426;11.182;2023-02-28T15:43:33;98391.06;;;8.33
17716;BMP280;50159;49.426;11.182;2023-02-28T15:48:47;98381.47;;;9.31
17716;BMP280;50159;49.426;11.182;2023-02-28T15:51:24;98395.19;;;9.86
17716;BMP280;50159;49.426;11.182;2023-02-28T15:54:07;98395.13;;;10.46
17716;BMP280;50159;49.426;11.182;2023-02-28T15:56:46;98395.94;;;10.38
17716;BMP280;50159;49.426;11.182;2023-02-28T15:59:20;98457.22;;;10.57
17716;BMP280;50159;49.426;11.182;2023-02-28T16:02:20;98396.84;;;10.25
17716;BMP280;50159;49.426;11.182;2023-02-28T16:05:19;98387.22;;;9.36
17716;BMP280;50159;49.426;11.182;2023-02-28T16:07:48;98396.22;;;8.62
17716;BMP280;50159;49.426;11.182;2023-02-28T16:10:15;98396.22;;;8.62
17716;BMP280;50159;49.426;11.182;2023-02-28T16:12:42;98411.16;;;7.55
17716;BMP280;50159;49.426;11.182;2023-02-28T16:15:23;98411.31;;;7.22
17716;BMP280;50159;49.426;11.182;2023-02-28T16:17:53;98418.88;;;6.94
17716;BMP280;50159;49.426;11.182;2023-02-28T16:20:27;98416.81;;;6.52
17716;BMP280;50159;49.426;11.182;2023-02-28T16:22:54;98418.50;;;6.20
17716;BMP280;50159;49.426;11.182;2023-02-28T16:25:29;98426.91;;;5.90
17716;BMP280;50159;49.426;11.182;2023-02-28T16:28:00;98417.09;;;5.62
17716;BMP280;50159;49.426;11.182;2023-02-28T16:30:29;98434.28;;;5.45
17716;BMP280;50159;49.426;11.182;2023-02-28T16:32:59;98430.09;;;5.24
17716;BMP280;50159;49.426;11.182;2023-02-28T16:35:26;98440.97;;;5.13
17716;BMP280;50159;49.426;11.182;2023-02-28T16:37:53;98440.97;;;5.13
17716;BMP280;50159;49.426;11.182;2023-02-28T16:40:24;98446.66;;;4.83
17716;BMP280;50159;49.426;11.182;2023-02-28T16:42:57;98444.38;;;4.75
17716;BMP280;50159;49.426;11.182;2023-02-28T16:45:28;98446.63;;;4.65
17716;BMP280;50159;49.426;11.182;2023-02-28T16:47:56;98447.84;;;4.56
17716;BMP280;50159;49.426;11.182;2023-02-28T16:50:29;98451.63;;;4.48
17716;BMP280;50159;49.426;11.182;2023-02-28T16:52:56;98451.13;;;4.40